sensor_id;sensor_type;location;lat;lon;timestamp;P1;durP1;ratioP1;P2;durP2;ratioP2
5841;SDS011;2947;52.276;9.946;2024-01-10T00:02:01;13.23;;;4.30;;
5841;SDS011;2947;52.276;9.946;2024-01-10T00:04:28;10.93;;;5.80;;
5841;SDS011;2947;52.276;9.946;2024-01-10T00:06:54;14.20;;;5.73;;
5841;SDS011;2947;52.276;9.946;2024-01-10T00:09:20;12.53;;;4.77;;
5841;SDS011;2947;52.276;9.946;2024-01-10T00:11:46;17.10;;;6.03;;
5841;SDS011;2947;52.276;9.946;2024-01-10T00:14:12;16.63;;;6.27;;
5841;SDS011;2947;52.276;9.946;2024-01-10T00:16:38;20.57;;;7.20;;
5841;SDS011;2947;52.276;9.946;2024-01-10T00:19:03;9.83;;;4.93;;
5841;SDS011;2947;52.276;9.946;2024-01-10T00:21:29;14.83;;;5.70;;
5841;SDS011;2947;52.276;9.946;2024-01-10T00:23:55;8.70;;;3.20;;
5841;SDS011;2947;52.276;9.946;2024-01-10T00:26:21;14.80;;;5.80;;
5841;SDS011;2947;52.276;9.946;2024-01-10T00:28:47;12.20;;;6.50;;
5841;SDS011;2947;52.276;9.946;2024-01-10T00:31:13;20.80;;;8.30;;
5841;SDS011;2947;52.276;9.946;2024-01-10T00:33:39;15.30;;;6.73;;
5841;SDS011;2947;52.276;9.946;2024-01-10T00:36:06;13.27;;;5.03;;
5841;SDS011;2947;52.276;9.946;2024-01-10T00:38:32;19.53;;;7.40;;
5841;SDS011;2947;52.276;9.946;2024-01-10T00:40:58;14.77;;;6.17;;
5841;SDS011;2947;52.276;9.946;2024-01-10T00:43:24;18.73;;;7.10;;
5841;SDS011;2947;52.276;9.946;2024-01-10T00:45:50;10.30;;;5.53;;
5841;SDS011;2947;52.276;9.946;2024-01-10T00:48:16;10.50;;;4.20;;
5841;SDS011;2947;52.276;9.946;2024-01-10T00:50:44;13.97;;;6.10;;
5841;SDS011;2947;52.276;9.946;2024-01-10T00:53:10;17.80;;;6.97;;
5841;SDS011;2947;52.276;9.946;2024-01-10T00:55:37;5.63;;;2.60;;
5841;SDS011;2947;52.276;9.946;2024-01-10T00:58:03;11.20;;;5.00;;
5841;SDS011;2947;52.276;9.946;2024-01-10T01:00:29;19.27;;;4.30;;
5841;SDS011;2947;52.276;9.946;2024-01-10T01:02:55;14.10;;;4.03;;
5841;SDS011;2947;52.276;9.946;2024-01-10T01:05:20;20.07;;;6.33;;
5841;SDS011;2947;52.276;9.946;2024-01-10T01:07:46;18.07;;;7.07;;
5841;SDS011;2947;52.276;9.946;2024-01-10T01:10:12;20.70;;;7.33;;
5841;SDS011;2947;52.276;9.946;2024-01-10T01:12:38;17.33;;;7.60;;
5841;SDS011;2947;52.276;9.946;2024-01-10T01:15:04;14.43;;;5.23;;
5841;SDS011;2947;52.276;9.946;2024-01-10T01:17:31;9.63;;;4.17;;
5841;SDS011;2947;52.276;9.946;2024-01-10T01:19:57;5.10;;;1.63;;
5841;SDS011;2947;52.276;9.946;2024-01-10T01:22:23;13.10;;;5.07;;
5841;SDS011;2947;52.276;9.946;2024-01-10T01:24:49;15.80;;;6.70;;
5841;SDS011;2947;52.276;9.946;2024-01-10T01:27:14;11.37;;;4.50;;
5841;SDS011;2947;52.276;9.946;2024-01-10T01:29:40;10.70;;;4.67;;
5841;SDS011;2947;52.276;9.946;2024-01-10T01:32:09;18.77;;;7.80;;
5841;SDS011;2947;52.276;9.946;2024-01-10T01:34:35;14.07;;;3.87;;
5841;SDS011;2947;52.276;9.946;2024-01-10T01:37:01;8.03;;;5.33;;
5841;SDS011;2947;52.276;9.946;2024-01-10T01:39:27;17.80;;;8.20;;
5841;SDS011;2947;52.276;9.946;2024-01-10T01:41:52;12.03;;;5.70;;
5841;SDS011;2947;52.276;9.946;2024-01-10T01:44:18;12.27;;;5.33;;
5841;SDS011;2947;52.276;9.946;2024-01-10T01:46:44;11.60;;;5.20;;
5841;SDS011;2947;52.276;9.946;2024-01-10T01:49:11;11.50;;;5.30;;
5841;SDS011;2947;52.276;9.946;2024-01-10T01:51:38;10.37;;;4.70;;
5841;SDS011;2947;52.276;9.946;2024-01-10T01:54:07;18.70;;;6.10;;
5841;SDS011;2947;52.276;9.946;2024-01-10T01:56:35;17.00;;;6.60;;
5841;SDS011;2947;52.276;9.946;2024-01-10T01:59:02;14.20;;;5.93;;
5841;SDS011;2947;52.276;9.946;2024-01-10T02:01:29;13.43;;;5.50;;
5841;SDS011;2947;52.276;9.946;2024-01-10T02:03:55;23.87;;;6.50;;
5841;SDS011;2947;52.276;9.946;2024-01-10T02:06:21;11.83;;;3.77;;
5841;SDS011;2947;52.276;9.946;2024-01-10T02:08:48;16.93;;;7.57;;
5841;SDS011;2947;52.276;9.946;2024-01-10T02:11:14;18.03;;;6.63;;
5841;SDS011;2947;52.276;9.946;2024-01-10T02:13:40;16.67;;;6.27;;
5841;SDS011;2947;52.276;9.946;2024-01-10T02:16:06;14.17;;;5.37;;
5841;SDS011;2947;52.276;9.946;2024-01-10T02:18:33;15.40;;;4.50;;
5841;SDS011;2947;52.276;9.946;2024-01-10T02:21:00;13.30;;;5.43;;
5841;SDS011;2947;52.276;9.946;2024-01-10T02:23:26;14.27;;;4.60;;
5841;SDS011;2947;52.276;9.946;2024-01-10T02:25:52;20.37;;;7.10;;
5841;SDS011;2947;52.276;9.946;2024-01-10T02:28:17;16.00;;;6.30;;
5841;SDS011;2947;52.276;9.946;2024-01-10T02:30:43;16.97;;;6.67;;
5841;SDS011;2947;52.276;9.946;2024-01-10T02:33:09;15.23;;;6.30;;
5841;SDS011;2947;52.276;9.946;2024-01-10T02:35:35;18.80;;;7.20;;
5841;SDS011;2947;52.276;9.946;2024-01-10T02:38:01;14.13;;;6.53;;
5841;SDS011;2947;52.276;9.946;2024-01-10T02:40:28;19.27;;;6.97;;
5841;SDS011;2947;52.276;9.946;2024-01-10T02:42:54;15.30;;;5.50;;
5841;SDS011;2947;52.276;9.946;2024-01-10T02:45:20;16.30;;;6.23;;
5841;SDS011;2947;52.276;9.946;2024-01-10T02:47:46;19.57;;;6.97;;
5841;SDS011;2947;52.276;9.946;2024-01-10T02:50:11;12.00;;;4.90;;
5841;SDS011;2947;52.276;9.946;2024-01-10T02:52:37;15.83;;;7.03;;
5841;SDS011;2947;52.276;9.946;2024-01-10T02:55:03;11.80;;;5.53;;
5841;SDS011;2947;52.276;9.946;2024-01-10T02:57:32;15.20;;;6.10;;
5841;SDS011;2947;52.276;9.946;2024-01-10T02:59:57;18.77;;;6.50;;
5841;SDS011;2947;52.276;9.946;2024-01-10T03:02:23;6.17;;;2.53;;
5841;SDS011;2947;52.276;9.946;2024-01-10T03:04:49;10.50;;;5.00;;
5841;SDS011;2947;52.276;9.946;2024-01-10T03:07:15;10.37;;;4.80;;
5841;SDS011;2947;52.276;9.946;2024-01-10T03:09:40;14.47;;;6.13;;
5841;SDS011;2947;52.276;9.946;2024-01-10T03:12:06;6.83;;;4.00;;
5841;SDS011;2947;52.276;9.946;2024-01-10T03:14:36;17.27;;;7.10;;
5841;SDS011;2947;52.276;9.946;2024-01-10T03:17:02;14.73;;;6.80;;
5841;SDS011;2947;52.276;9.946;2024-01-10T03:19:28;13.77;;;6.17;;
5841;SDS011;2947;52.276;9.946;2024-01-10T03:21:53;17.50;;;5.90;;
5841;SDS011;2947;52.276;9.946;2024-01-10T03:24:19;18.87;;;6.80;;
5841;SDS011;2947;52.276;9.946;2024-01-10T03:26:49;15.47;;;6.27;;
5841;SDS011;2947;52.276;9.946;2024-01-10T03:29:14;18.80;;;7.30;;
5841;SDS011;2947;52.276;9.946;2024-01-10T03:31:40;14.70;;;5.20;;
5841;SDS011;2947;52.276;9.946;2024-01-10T03:34:06;9.27;;;5.30;;
5841;SDS011;2947;52.276;9.946;2024-01-10T03:36:32;23.53;;;9.20;;
5841;SDS011;2947;52.276;9.946;2024-01-10T03:38:57;12.53;;;4.80;;
5841;SDS011;2947;52.276;9.946;2024-01-10T03:41:23;24.30;;;8.07;;
5841;SDS011;2947;52.276;9.946;2024-01-10T03:43:49;22.13;;;8.20;;
5841;SDS011;2947;52.276;9.946;2024-01-10T03:46:15;15.40;;;7.43;;
5841;SDS011;2947;52.276;9.946;2024-01-10T03:48:41;16.03;;;4.87;;
5841;SDS011;2947;52.276;9.946;2024-01-10T03:51:13;21.47;;;7.33;;
5841;SDS011;2947;52.276;9.946;2024-01-10T03:53:40;18.87;;;7.97;;
5841;SDS011;2947;52.276;9.946;2024-01-10T03:56:07;21.63;;;8.50;;
5841;SDS011;2947;52.276;9.946;2024-01-10T03:58:35;18.60;;;6.87;;
5841;SDS011;2947;52.276;9.946;2024-01-10T04:01:04;20.70;;;7.77;;
5841;SDS011;2947;52.276;9.946;2024-01-10T04:03:33;21.45;;;9.32;;
5841;SDS011;2947;52.276;9.946;2024-01-10T04:06:00;18.43;;;6.53;;
5841;SDS011;2947;52.276;9.946;2024-01-10T04:08:26;13.63;;;6.70;;
5841;SDS011;2947;52.276;9.946;2024-01-10T04:10:52;11.17;;;5.43;;
5841;SDS011;2947;52.276;9.946;2024-01-10T04:13:18;22.30;;;6.50;;
5841;SDS011;2947;52.276;9.946;2024-01-10T04:15:43;18.73;;;6.10;;
5841;SDS011;2947;52.276;9.946;2024-01-10T04:18:09;24.10;;;9.53;;
5841;SDS011;2947;52.276;9.946;2024-01-10T04:20:35;21.03;;;9.33;;
5841;SDS011;2947;52.276;9.946;2024-01-10T04:23:01;22.70;;;6.53;;
5841;SDS011;2947;52.276;9.946;2024-01-10T04:25:27;17.90;;;8.33;;
5841;SDS011;2947;52.276;9.946;2024-01-10T04:27:52;17.50;;;7.23;;
5841;SDS011;2947;52.276;9.946;2024-01-10T04:30:18;15.63;;;5.83;;
5841;SDS011;2947;52.276;9.946;2024-01-10T04:32:44;16.70;;;7.20;;
5841;SDS011;2947;52.276;9.946;2024-01-10T04:35:10;26.67;;;10.30;;
5841;SDS011;2947;52.276;9.946;2024-01-10T04:37:37;11.33;;;4.63;;
5841;SDS011;2947;52.276;9.946;2024-01-10T04:40:04;10.90;;;4.50;;
5841;SDS011;2947;52.276;9.946;2024-01-10T04:42:32;17.63;;;8.40;;
5841;SDS011;2947;52.276;9.946;2024-01-10T04:44:58;16.27;;;6.23;;
5841;SDS011;2947;52.276;9.946;2024-01-10T04:47:23;18.93;;;6.60;;
5841;SDS011;2947;52.276;9.946;2024-01-10T04:49:49;23.03;;;5.70;;
5841;SDS011;2947;52.276;9.946;2024-01-10T04:52:15;10.23;;;5.43;;
5841;SDS011;2947;52.276;9.946;2024-01-10T04:54:40;26.70;;;8.50;;
5841;SDS011;2947;52.276;9.946;2024-01-10T04:57:06;22.33;;;9.23;;
5841;SDS011;2947;52.276;9.946;2024-01-10T04:59:33;21.80;;;9.00;;
5841;SDS011;2947;52.276;9.946;2024-01-10T05:01:58;28.83;;;8.97;;
5841;SDS011;2947;52.276;9.946;2024-01-10T05:04:24;22.90;;;9.70;;
5841;SDS011;2947;52.276;9.946;2024-01-10T05:06:50;21.23;;;8.73;;
5841;SDS011;2947;52.276;9.946;2024-01-10T05:09:16;23.23;;;9.17;;
5841;SDS011;2947;52.276;9.946;2024-01-10T05:11:42;26.63;;;10.47;;
5841;SDS011;2947;52.276;9.946;2024-01-10T05:14:12;22.97;;;9.47;;
5841;SDS011;2947;52.276;9.946;2024-01-10T05:16:38;34.30;;;10.40;;
5841;SDS011;2947;52.276;9.946;2024-01-10T05:19:04;31.70;;;10.00;;
5841;SDS011;2947;52.276;9.946;2024-01-10T05:21:30;30.47;;;9.40;;
5841;SDS011;2947;52.276;9.946;2024-01-10T05:23:57;29.40;;;10.90;;
5841;SDS011;2947;52.276;9.946;2024-01-10T05:26:23;33.90;;;11.77;;
5841;SDS011;2947;52.276;9.946;2024-01-10T05:28:48;33.70;;;11.83;;
5841;SDS011;2947;52.276;9.946;2024-01-10T05:31:14;49.07;;;19.20;;
5841;SDS011;2947;52.276;9.946;2024-01-10T05:33:40;34.30;;;14.60;;
5841;SDS011;2947;52.276;9.946;2024-01-10T05:36:07;45.07;;;18.00;;
5841;SDS011;2947;52.276;9.946;2024-01-10T05:38:37;38.93;;;15.70;;
5841;SDS011;2947;52.276;9.946;2024-01-10T05:41:07;54.80;;;20.33;;
5841;SDS011;2947;52.276;9.946;2024-01-10T05:43:36;59.87;;;19.90;;
5841;SDS011;2947;52.276;9.946;2024-01-10T05:46:02;36.90;;;14.10;;
5841;SDS011;2947;52.276;9.946;2024-01-10T05:48:30;39.73;;;18.00;;
5841;SDS011;2947;52.276;9.946;2024-01-10T05:50:56;53.27;;;22.10;;
5841;SDS011;2947;52.276;9.946;2024-01-10T05:53:25;32.20;;;13.90;;
5841;SDS011;2947;52.276;9.946;2024-01-10T05:55:51;38.80;;;14.73;;
5841;SDS011;2947;52.276;9.946;2024-01-10T05:58:17;33.60;;;14.70;;
5841;SDS011;2947;52.276;9.946;2024-01-10T06:00:43;34.87;;;11.20;;
5841;SDS011;2947;52.276;9.946;2024-01-10T06:03:09;56.70;;;11.03;;
5841;SDS011;2947;52.276;9.946;2024-01-10T06:05:35;15.80;;;7.67;;
5841;SDS011;2947;52.276;9.946;2024-01-10T06:08:01;21.87;;;10.73;;
5841;SDS011;2947;52.276;9.946;2024-01-10T06:10:29;27.63;;;10.80;;
5841;SDS011;2947;52.276;9.946;2024-01-10T06:12:54;21.17;;;9.17;;
5841;SDS011;2947;52.276;9.946;2024-01-10T06:15:21;23.33;;;7.80;;
5841;SDS011;2947;52.276;9.946;2024-01-10T06:17:47;32.23;;;11.50;;
5841;SDS011;2947;52.276;9.946;2024-01-10T06:20:13;34.90;;;11.87;;
5841;SDS011;2947;52.276;9.946;2024-01-10T06:22:39;33.83;;;10.63;;
5841;SDS011;2947;52.276;9.946;2024-01-10T06:25:05;28.10;;;11.00;;
5841;SDS011;2947;52.276;9.946;2024-01-10T06:27:33;35.57;;;11.63;;
5841;SDS011;2947;52.276;9.946;2024-01-10T06:30:00;33.43;;;11.67;;
5841;SDS011;2947;52.276;9.946;2024-01-10T06:32:26;24.73;;;9.97;;
5841;SDS011;2947;52.276;9.946;2024-01-10T06:34:51;17.60;;;6.00;;
5841;SDS011;2947;52.276;9.946;2024-01-10T06:37:18;37.03;;;13.87;;
5841;SDS011;2947;52.276;9.946;2024-01-10T06:39:44;32.10;;;13.90;;
5841;SDS011;2947;52.276;9.946;2024-01-10T06:42:09;32.70;;;10.50;;
5841;SDS011;2947;52.276;9.946;2024-01-10T06:44:37;24.60;;;10.50;;
5841;SDS011;2947;52.276;9.946;2024-01-10T06:47:03;26.63;;;9.50;;
5841;SDS011;2947;52.276;9.946;2024-01-10T06:49:29;31.30;;;11.10;;
5841;SDS011;2947;52.276;9.946;2024-01-10T06:51:55;28.97;;;10.43;;
5841;SDS011;2947;52.276;9.946;2024-01-10T06:54:20;30.27;;;10.67;;
5841;SDS011;2947;52.276;9.946;2024-01-10T06:56:46;35.20;;;13.27;;
5841;SDS011;2947;52.276;9.946;2024-01-10T06:59:12;26.17;;;10.47;;
5841;SDS011;2947;52.276;9.946;2024-01-10T07:01:38;27.17;;;10.00;;
5841;SDS011;2947;52.276;9.946;2024-01-10T07:04:04;25.60;;;7.80;;
5841;SDS011;2947;52.276;9.946;2024-01-10T07:06:31;31.80;;;11.03;;
5841;SDS011;2947;52.276;9.946;2024-01-10T07:08:56;17.63;;;6.00;;
5841;SDS011;2947;52.276;9.946;2024-01-10T07:11:23;31.87;;;10.63;;
5841;SDS011;2947;52.276;9.946;2024-01-10T07:13:49;26.77;;;9.80;;
5841;SDS011;2947;52.276;9.946;2024-01-10T07:16:14;24.70;;;8.50;;
5841;SDS011;2947;52.276;9.946;2024-01-10T07:18:41;34.10;;;12.17;;
5841;SDS011;2947;52.276;9.946;2024-01-10T07:21:08;17.73;;;7.67;;
5841;SDS011;2947;52.276;9.946;2024-01-10T07:23:34;36.83;;;13.10;;
5841;SDS011;2947;52.276;9.946;2024-01-10T07:26:00;19.23;;;8.23;;
5841;SDS011;2947;52.276;9.946;2024-01-10T07:28:26;11.37;;;4.70;;
5841;SDS011;2947;52.276;9.946;2024-01-10T07:30:52;27.67;;;12.27;;
5841;SDS011;2947;52.276;9.946;2024-01-10T07:33:18;32.27;;;10.50;;
5841;SDS011;2947;52.276;9.946;2024-01-10T07:35:44;7.43;;;4.70;;
5841;SDS011;2947;52.276;9.946;2024-01-10T07:38:09;28.00;;;10.30;;
5841;SDS011;2947;52.276;9.946;2024-01-10T07:40:38;27.07;;;10.00;;
5841;SDS011;2947;52.276;9.946;2024-01-10T07:43:04;38.67;;;11.80;;
5841;SDS011;2947;52.276;9.946;2024-01-10T07:45:29;38.23;;;13.00;;
5841;SDS011;2947;52.276;9.946;2024-01-10T07:47:55;27.63;;;9.10;;
5841;SDS011;2947;52.276;9.946;2024-01-10T07:50:21;31.00;;;12.17;;
5841;SDS011;2947;52.276;9.946;2024-01-10T07:52:52;33.47;;;10.73;;
5841;SDS011;2947;52.276;9.946;2024-01-10T07:55:17;37.80;;;13.23;;
5841;SDS011;2947;52.276;9.946;2024-01-10T07:57:43;53.33;;;14.93;;
5841;SDS011;2947;52.276;9.946;2024-01-10T08:00:09;35.33;;;14.83;;
5841;SDS011;2947;52.276;9.946;2024-01-10T08:02:38;38.17;;;13.57;;
5841;SDS011;2947;52.276;9.946;2024-01-10T08:05:05;31.80;;;9.10;;
5841;SDS011;2947;52.276;9.946;2024-01-10T08:07:36;23.53;;;9.20;;
5841;SDS011;2947;52.276;9.946;2024-01-10T08:10:06;22.13;;;9.30;;
5841;SDS011;2947;52.276;9.946;2024-01-10T08:12:35;31.43;;;7.13;;
5841;SDS011;2947;52.276;9.946;2024-01-10T08:15:02;45.20;;;14.07;;
5841;SDS011;2947;52.276;9.946;2024-01-10T08:17:28;36.40;;;13.77;;
5841;SDS011;2947;52.276;9.946;2024-01-10T08:19:53;44.47;;;15.73;;
5841;SDS011;2947;52.276;9.946;2024-01-10T08:22:19;16.20;;;7.07;;
5841;SDS011;2947;52.276;9.946;2024-01-10T08:24:46;34.97;;;12.37;;
5841;SDS011;2947;52.276;9.946;2024-01-10T08:27:12;36.30;;;13.20;;
5841;SDS011;2947;52.276;9.946;2024-01-10T08:29:38;44.20;;;14.30;;
5841;SDS011;2947;52.276;9.946;2024-01-10T08:32:05;36.27;;;14.40;;
5841;SDS011;2947;52.276;9.946;2024-01-10T08:34:31;27.00;;;9.90;;
5841;SDS011;2947;52.276;9.946;2024-01-10T08:36:57;30.70;;;12.67;;
5841;SDS011;2947;52.276;9.946;2024-01-10T08:39:22;41.70;;;13.77;;
5841;SDS011;2947;52.276;9.946;2024-01-10T08:41:50;41.37;;;13.90;;
5841;SDS011;2947;52.276;9.946;2024-01-10T08:44:17;34.60;;;10.27;;
5841;SDS011;2947;52.276;9.946;2024-01-10T08:46:43;42.43;;;14.57;;
5841;SDS011;2947;52.276;9.946;2024-01-10T08:49:09;43.63;;;15.60;;
5841;SDS011;2947;52.276;9.946;2024-01-10T08:51:35;32.60;;;11.40;;
5841;SDS011;2947;52.276;9.946;2024-01-10T08:54:01;39.80;;;13.97;;
5841;SDS011;2947;52.276;9.946;2024-01-10T08:56:27;22.17;;;8.67;;
5841;SDS011;2947;52.276;9.946;2024-01-10T08:58:52;46.83;;;16.23;;
5841;SDS011;2947;52.276;9.946;2024-01-10T09:01:18;34.90;;;14.00;;
5841;SDS011;2947;52.276;9.946;2024-01-10T09:03:44;47.93;;;18.07;;
5841;SDS011;2947;52.276;9.946;2024-01-10T09:06:10;30.83;;;10.90;;
5841;SDS011;2947;52.276;9.946;2024-01-10T09:08:38;34.97;;;13.93;;
5841;SDS011;2947;52.276;9.946;2024-01-10T09:11:04;20.00;;;9.93;;
5841;SDS011;2947;52.276;9.946;2024-01-10T09:13:32;41.10;;;15.63;;
5841;SDS011;2947;52.276;9.946;2024-01-10T09:15:59;32.20;;;10.20;;
5841;SDS011;2947;52.276;9.946;2024-01-10T09:18:25;35.73;;;11.27;;
5841;SDS011;2947;52.276;9.946;2024-01-10T09:20:51;42.63;;;15.80;;
5841;SDS011;2947;52.276;9.946;2024-01-10T09:23:16;24.13;;;8.43;;
5841;SDS011;2947;52.276;9.946;2024-01-10T09:25:43;44.17;;;14.80;;
5841;SDS011;2947;52.276;9.946;2024-01-10T09:28:09;27.73;;;13.40;;
5841;SDS011;2947;52.276;9.946;2024-01-10T09:30:35;44.13;;;14.50;;
5841;SDS011;2947;52.276;9.946;2024-01-10T09:33:01;43.40;;;15.37;;
5841;SDS011;2947;52.276;9.946;2024-01-10T09:35:27;31.10;;;10.20;;
5841;SDS011;2947;52.276;9.946;2024-01-10T09:37:53;39.23;;;14.10;;
5841;SDS011;2947;52.276;9.946;2024-01-10T09:40:19;44.73;;;15.23;;
5841;SDS011;2947;52.276;9.946;2024-01-10T09:42:47;25.43;;;12.30;;
5841;SDS011;2947;52.276;9.946;2024-01-10T09:45:16;42.47;;;16.40;;
5841;SDS011;2947;52.276;9.946;2024-01-10T09:47:45;38.77;;;14.13;;
5841;SDS011;2947;52.276;9.946;2024-01-10T09:50:17;26.60;;;8.77;;
5841;SDS011;2947;52.276;9.946;2024-01-10T09:52:50;42.93;;;18.47;;
5841;SDS011;2947;52.276;9.946;2024-01-10T09:55:22;31.00;;;11.30;;
5841;SDS011;2947;52.276;9.946;2024-01-10T09:57:48;52.97;;;17.90;;
5841;SDS011;2947;52.276;9.946;2024-01-10T10:00:14;46.33;;;18.20;;
5841;SDS011;2947;52.276;9.946;2024-01-10T10:02:41;32.20;;;12.50;;
5841;SDS011;2947;52.276;9.946;2024-01-10T10:05:18;37.33;;;9.50;;
5841;SDS011;2947;52.276;9.946;2024-01-10T10:07:47;25.70;;;11.20;;
5841;SDS011;2947;52.276;9.946;2024-01-10T10:10:17;45.07;;;15.90;;
5841;SDS011;2947;52.276;9.946;2024-01-10T10:12:53;18.70;;;6.43;;
5841;SDS011;2947;52.276;9.946;2024-01-10T10:15:21;38.47;;;15.10;;
5841;SDS011;2947;52.276;9.946;2024-01-10T10:17:51;48.87;;;15.80;;
5841;SDS011;2947;52.276;9.946;2024-01-10T10:20:28;42.93;;;14.87;;
5841;SDS011;2947;52.276;9.946;2024-01-10T10:23:01;35.07;;;11.77;;
5841;SDS011;2947;52.276;9.946;2024-01-10T10:25:30;48.93;;;16.33;;
5841;SDS011;2947;52.276;9.946;2024-01-10T10:27:57;26.83;;;12.67;;
5841;SDS011;2947;52.276;9.946;2024-01-10T10:30:25;45.63;;;15.13;;
5841;SDS011;2947;52.276;9.946;2024-01-10T10:32:51;43.20;;;16.30;;
5841;SDS011;2947;52.276;9.946;2024-01-10T10:35:18;39.87;;;16.67;;
5841;SDS011;2947;52.276;9.946;2024-01-10T10:37:51;43.73;;;17.47;;
5841;SDS011;2947;52.276;9.946;2024-01-10T10:40:19;43.50;;;16.73;;
5841;SDS011;2947;52.276;9.946;2024-01-10T10:42:47;42.03;;;15.10;;
5841;SDS011;2947;52.276;9.946;2024-01-10T10:45:15;33.70;;;10.43;;
5841;SDS011;2947;52.276;9.946;2024-01-10T10:47:44;32.30;;;12.00;;
5841;SDS011;2947;52.276;9.946;2024-01-10T10:50:17;49.13;;;17.70;;
5841;SDS011;2947;52.276;9.946;2024-01-10T10:52:50;49.70;;;16.63;;
5841;SDS011;2947;52.276;9.946;2024-01-10T10:55:17;52.23;;;18.10;;
5841;SDS011;2947;52.276;9.946;2024-01-10T10:57:44;43.20;;;15.57;;
5841;SDS011;2947;52.276;9.946;2024-01-10T11:00:15;44.87;;;18.20;;
5841;SDS011;2947;52.276;9.946;2024-01-10T11:02:47;43.57;;;17.77;;
5841;SDS011;2947;52.276;9.946;2024-01-10T11:05:14;28.63;;;11.17;;
5841;SDS011;2947;52.276;9.946;2024-01-10T11:07:42;42.57;;;16.33;;
5841;SDS011;2947;52.276;9.946;2024-01-10T11:10:15;35.87;;;13.67;;
5841;SDS011;2947;52.276;9.946;2024-01-10T11:13:00;22.53;;;8.17;;
5841;SDS011;2947;52.276;9.946;2024-01-10T11:22:29;55.33;;;17.67;;
5841;SDS011;2947;52.276;9.946;2024-01-10T11:25:40;44.00;;;17.93;;
5841;SDS011;2947;52.276;9.946;2024-01-10T11:28:06;52.77;;;18.90;;
5841;SDS011;2947;52.276;9.946;2024-01-10T11:30:34;45.33;;;15.00;;
5841;SDS011;2947;52.276;9.946;2024-01-10T11:33:17;38.73;;;15.60;;
5841;SDS011;2947;52.276;9.946;2024-01-10T11:36:05;46.07;;;18.10;;
5841;SDS011;2947;52.276;9.946;2024-01-10T11:38:58;45.83;;;18.97;;
5841;SDS011;2947;52.276;9.946;2024-01-10T11:46:41;47.90;;;18.90;;
5841;SDS011;2947;52.276;9.946;2024-01-10T11:49:17;51.87;;;15.23;;
5841;SDS011;2947;52.276;9.946;2024-01-10T11:51:45;55.70;;;18.70;;
5841;SDS011;2947;52.276;9.946;2024-01-10T11:54:34;43.83;;;13.47;;
5841;SDS011;2947;52.276;9.946;2024-01-10T11:57:03;56.00;;;20.13;;
5841;SDS011;2947;52.276;9.946;2024-01-10T11:59:42;46.20;;;17.40;;
5841;SDS011;2947;52.276;9.946;2024-01-10T12:02:10;38.17;;;13.40;;
5841;SDS011;2947;52.276;9.946;2024-01-10T12:04:39;22.47;;;8.27;;
5841;SDS011;2947;52.276;9.946;2024-01-10T12:07:07;44.70;;;16.13;;
5841;SDS011;2947;52.276;9.946;2024-01-10T12:09:34;48.97;;;20.37;;
5841;SDS011;2947;52.276;9.946;2024-01-10T12:12:03;25.20;;;9.93;;
5841;SDS011;2947;52.276;9.946;2024-01-10T12:14:29;43.90;;;17.13;;
5841;SDS011;2947;52.276;9.946;2024-01-10T12:16:56;25.27;;;10.17;;
5841;SDS011;2947;52.276;9.946;2024-01-10T12:19:22;48.10;;;18.03;;
5841;SDS011;2947;52.276;9.946;2024-01-10T12:21:48;54.63;;;19.97;;
5841;SDS011;2947;52.276;9.946;2024-01-10T12:24:14;51.33;;;20.67;;
5841;SDS011;2947;52.276;9.946;2024-01-10T12:26:46;52.80;;;21.20;;
5841;SDS011;2947;52.276;9.946;2024-01-10T12:29:16;46.40;;;15.17;;
5841;SDS011;2947;52.276;9.946;2024-01-10T12:31:45;62.60;;;19.57;;
5841;SDS011;2947;52.276;9.946;2024-01-10T12:34:11;46.00;;;20.30;;
5841;SDS011;2947;52.276;9.946;2024-01-10T12:36:37;48.17;;;19.97;;
5841;SDS011;2947;52.276;9.946;2024-01-10T12:39:03;52.47;;;20.90;;
5841;SDS011;2947;52.276;9.946;2024-01-10T12:41:32;48.97;;;21.73;;
5841;SDS011;2947;52.276;9.946;2024-01-10T12:44:00;54.23;;;21.70;;
5841;SDS011;2947;52.276;9.946;2024-01-10T12:46:30;48.60;;;17.70;;
5841;SDS011;2947;52.276;9.946;2024-01-10T12:49:06;38.03;;;15.10;;
5841;SDS011;2947;52.276;9.946;2024-01-10T12:51:33;48.20;;;18.50;;
5841;SDS011;2947;52.276;9.946;2024-01-10T12:54:01;28.67;;;14.07;;
5841;SDS011;2947;52.276;9.946;2024-01-10T12:56:32;37.37;;;16.30;;
5841;SDS011;2947;52.276;9.946;2024-01-10T12:58:58;34.07;;;11.93;;
5841;SDS011;2947;52.276;9.946;2024-01-10T13:01:24;44.90;;;17.60;;
5841;SDS011;2947;52.276;9.946;2024-01-10T13:03:50;51.10;;;18.57;;
5841;SDS011;2947;52.276;9.946;2024-01-10T13:06:17;35.70;;;15.70;;
5841;SDS011;2947;52.276;9.946;2024-01-10T13:08:45;39.20;;;14.67;;
5841;SDS011;2947;52.276;9.946;2024-01-10T13:11:11;27.33;;;9.53;;
5841;SDS011;2947;52.276;9.946;2024-01-10T13:13:39;45.27;;;19.40;;
5841;SDS011;2947;52.276;9.946;2024-01-10T13:16:06;54.93;;;18.63;;
5841;SDS011;2947;52.276;9.946;2024-01-10T13:18:35;25.13;;;10.47;;
5841;SDS011;2947;52.276;9.946;2024-01-10T13:21:02;40.67;;;15.33;;
5841;SDS011;2947;52.276;9.946;2024-01-10T13:23:31;44.00;;;17.00;;
5841;SDS011;2947;52.276;9.946;2024-01-10T13:25:58;41.43;;;13.50;;
5841;SDS011;2947;52.276;9.946;2024-01-10T13:28:24;38.43;;;15.50;;
5841;SDS011;2947;52.276;9.946;2024-01-10T13:30:49;40.53;;;17.50;;
5841;SDS011;2947;52.276;9.946;2024-01-10T13:33:15;48.60;;;18.10;;
5841;SDS011;2947;52.276;9.946;2024-01-10T13:35:42;25.73;;;10.70;;
5841;SDS011;2947;52.276;9.946;2024-01-10T13:38:08;34.10;;;11.10;;
5841;SDS011;2947;52.276;9.946;2024-01-10T13:40:35;31.83;;;13.90;;
5841;SDS011;2947;52.276;9.946;2024-01-10T13:43:01;48.50;;;17.97;;
5841;SDS011;2947;52.276;9.946;2024-01-10T13:45:28;44.20;;;17.00;;
5841;SDS011;2947;52.276;9.946;2024-01-10T13:47:54;46.30;;;15.60;;
5841;SDS011;2947;52.276;9.946;2024-01-10T13:50:20;40.80;;;14.90;;
5841;SDS011;2947;52.276;9.946;2024-01-10T13:52:46;28.77;;;13.23;;
5841;SDS011;2947;52.276;9.946;2024-01-10T13:55:12;49.13;;;17.50;;
5841;SDS011;2947;52.276;9.946;2024-01-10T13:57:38;35.13;;;12.83;;
5841;SDS011;2947;52.276;9.946;2024-01-10T14:00:05;46.53;;;17.80;;
5841;SDS011;2947;52.276;9.946;2024-01-10T14:02:34;27.87;;;12.70;;
5841;SDS011;2947;52.276;9.946;2024-01-10T14:05:00;39.10;;;16.30;;
5841;SDS011;2947;52.276;9.946;2024-01-10T14:07:30;43.97;;;16.50;;
5841;SDS011;2947;52.276;9.946;2024-01-10T14:09:57;45.27;;;15.53;;
5841;SDS011;2947;52.276;9.946;2024-01-10T14:12:23;45.97;;;14.90;;
5841;SDS011;2947;52.276;9.946;2024-01-10T14:14:48;40.00;;;16.13;;
5841;SDS011;2947;52.276;9.946;2024-01-10T14:17:15;39.80;;;16.30;;
5841;SDS011;2947;52.276;9.946;2024-01-10T14:19:41;40.43;;;16.67;;
5841;SDS011;2947;52.276;9.946;2024-01-10T14:22:08;32.23;;;12.50;;
5841;SDS011;2947;52.276;9.946;2024-01-10T14:24:35;42.33;;;18.00;;
5841;SDS011;2947;52.276;9.946;2024-01-10T14:27:01;46.40;;;18.23;;
5841;SDS011;2947;52.276;9.946;2024-01-10T14:29:27;50.97;;;15.77;;
5841;SDS011;2947;52.276;9.946;2024-01-10T14:31:53;50.00;;;18.87;;
5841;SDS011;2947;52.276;9.946;2024-01-10T14:34:18;28.50;;;12.80;;
5841;SDS011;2947;52.276;9.946;2024-01-10T14:36:45;41.50;;;15.37;;
5841;SDS011;2947;52.276;9.946;2024-01-10T14:39:10;46.27;;;16.90;;
5841;SDS011;2947;52.276;9.946;2024-01-10T14:41:40;40.63;;;15.20;;
5841;SDS011;2947;52.276;9.946;2024-01-10T14:44:07;44.40;;;18.87;;
5841;SDS011;2947;52.276;9.946;2024-01-10T14:46:36;41.30;;;10.87;;
5841;SDS011;2947;52.276;9.946;2024-01-10T14:49:03;42.70;;;16.80;;
5841;SDS011;2947;52.276;9.946;2024-01-10T14:51:29;49.20;;;17.37;;
5841;SDS011;2947;52.276;9.946;2024-01-10T14:53:55;37.23;;;15.57;;
5841;SDS011;2947;52.276;9.946;2024-01-10T14:56:21;29.97;;;11.50;;
5841;SDS011;2947;52.276;9.946;2024-01-10T14:58:48;32.97;;;12.77;;
5841;SDS011;2947;52.276;9.946;2024-01-10T15:01:15;46.70;;;18.27;;
5841;SDS011;2947;52.276;9.946;2024-01-10T15:03:42;49.57;;;18.70;;
5841;SDS011;2947;52.276;9.946;2024-01-10T15:06:08;38.90;;;16.73;;